createdAt,value
2019-02-21T00:02:02.206Z,47.06
2019-02-21T00:04:30.469Z,47.10
2019-02-21T00:06:58.488Z,47.15
2019-02-21T00:09:26.551Z,47.19
2019-02-21T00:11:54.735Z,47.25
2019-02-21T00:14:22.786Z,47.29
2019-02-21T00:16:50.803Z,47.33
2019-02-21T00:19:19.088Z,47.41
2019-02-21T00:21:47.145Z,47.47
2019-02-21T00:24:15.470Z,47.54
2019-02-21T00:26:44.388Z,47.60
2019-02-21T00:29:12.542Z,47.61
2019-02-21T00:31:41.022Z,47.62
2019-02-21T00:34:09.061Z,47.64
2019-02-21T00:36:37.112Z,47.71
2019-02-21T00:39:06.040Z,47.75
2019-02-21T00:41:34.398Z,47.76
2019-02-21T00:44:02.464Z,47.75
2019-02-21T00:46:31.842Z,47.80
2019-02-21T00:48:59.890Z,47.84
2019-02-21T00:51:27.940Z,47.91
2019-02-21T00:53:55.981Z,47.94
2019-02-21T00:56:24.035Z,48.00
2019-02-21T00:58:52.130Z,47.99
2019-02-21T01:01:21.026Z,48.04
2019-02-21T01:03:49.241Z,48.04
2019-02-21T01:06:17.687Z,48.11
2019-02-21T01:08:47.596Z,48.11
2019-02-21T01:11:17.429Z,48.15
2019-02-21T01:13:45.624Z,48.21
2019-02-21T01:16:13.726Z,48.24
2019-02-21T01:18:42.372Z,48.31
2019-02-21T01:21:10.388Z,48.31
2019-02-21T01:23:38.460Z,48.33
2019-02-21T01:26:07.841Z,48.38
2019-02-21T01:28:35.988Z,48.37
2019-02-21T01:31:04.144Z,48.45
2019-02-21T01:33:32.478Z,48.51
2019-02-21T01:36:00.676Z,48.52
2019-02-21T01:38:28.883Z,48.52
2019-02-21T01:40:56.966Z,48.55
2019-02-21T01:43:25.002Z,48.57
2019-02-21T01:45:53.105Z,48.61
2019-02-21T01:48:21.154Z,48.67
2019-02-21T01:50:52.314Z,48.70
2019-02-21T01:53:20.373Z,48.70
2019-02-21T01:55:48.550Z,48.71
2019-02-21T01:58:16.612Z,48.75
2019-02-21T02:00:44.716Z,48.78
2019-02-21T02:03:13.206Z,48.82
2019-02-21T02:05:41.615Z,48.83
2019-02-21T02:08:10.067Z,48.84
2019-02-21T02:10:38.487Z,48.87
2019-02-21T02:13:07.762Z,48.91
2019-02-21T02:15:35.828Z,48.93
2019-02-21T02:18:06.535Z,48.98
2019-02-21T02:20:34.593Z,49.02
2019-02-21T02:23:03.086Z,49.04
2019-02-21T02:25:31.146Z,49.06
2019-02-21T02:27:59.181Z,49.10
2019-02-21T02:30:27.347Z,49.18
2019-02-21T02:32:56.036Z,49.22
2019-02-21T02:35:24.099Z,49.22
2019-02-21T02:37:52.481Z,49.26
2019-02-21T02:40:20.547Z,49.27
2019-02-21T02:42:48.596Z,49.28
2019-02-21T02:45:17.834Z,49.32
2019-02-21T02:47:46.392Z,49.35
2019-02-21T02:50:14.788Z,49.41
2019-02-21T02:52:42.856Z,49.44
2019-02-21T02:55:11.029Z,49.48
2019-02-21T02:57:39.146Z,49.49
2019-02-21T03:00:10.164Z,49.55
2019-02-21T03:02:38.340Z,49.61
2019-02-21T03:05:06.592Z,49.63
2019-02-21T03:07:34.663Z,49.64
2019-02-21T03:10:04.759Z,49.63
2019-02-21T03:12:32.955Z,49.65
2019-02-21T03:15:02.136Z,49.66
2019-02-21T03:17:30.242Z,49.68
2019-02-21T03:19:58.480Z,49.75
2019-02-21T03:22:28.062Z,49.79
2019-02-21T03:24:56.341Z,49.80
2019-02-21T03:27:25.617Z,49.81
2019-02-21T03:29:53.767Z,49.83
2019-02-21T03:32:21.848Z,49.84
2019-02-21T03:34:51.211Z,49.86
2019-02-21T03:37:19.421Z,49.90
2019-02-21T03:39:47.862Z,49.95
2019-02-21T03:42:17.074Z,49.98
2019-02-21T03:44:45.293Z,50.00
2019-02-21T03:47:13.620Z,50.03
2019-02-21T03:49:42.775Z,50.00
2019-02-21T03:52:10.864Z,50.00
2019-02-21T03:54:39.034Z,50.02
2019-02-21T03:57:07.157Z,50.08
2019-02-21T03:59:35.839Z,50.10
2019-02-21T04:02:05.932Z,50.10
2019-02-21T04:04:35.199Z,50.11
2019-02-21T04:07:03.324Z,50.14
2019-02-21T04:09:31.472Z,50.21
2019-02-21T04:11:59.626Z,50.26
2019-02-21T04:14:28.021Z,50.30
2019-02-21T04:16:57.053Z,50.30
2019-02-21T04:19:25.501Z,50.36
2019-02-21T04:21:53.590Z,50.37
2019-02-21T04:24:21.653Z,50.43
2019-02-21T04:26:49.750Z,50.45
2019-02-21T04:29:17.932Z,50.43
2019-02-21T04:31:46.131Z,50.51
2019-02-21T04:34:14.194Z,50.53
2019-02-21T04:36:42.586Z,50.57
2019-02-21T04:39:10.653Z,50.60
2019-02-21T04:41:38.764Z,50.65
2019-02-21T04:44:06.896Z,50.62
2019-02-21T04:46:34.978Z,50.63
2019-02-21T04:49:03.056Z,50.65
2019-02-21T04:51:31.141Z,50.67
2019-02-21T04:53:59.601Z,50.69
2019-02-21T04:56:27.847Z,50.74
2019-02-21T04:58:56.226Z,50.79
2019-02-21T05:01:24.407Z,50.77
2019-02-21T05:03:53.580Z,50.80
2019-02-21T05:06:21.956Z,50.80
2019-02-21T05:08:50.157Z,50.80
2019-02-21T05:11:18.455Z,50.80
2019-02-21T05:13:46.527Z,50.80
2019-02-21T05:16:14.609Z,50.79
2019-02-21T05:18:42.921Z,50.84
2019-02-21T05:21:10.991Z,50.88
2019-02-21T05:23:39.190Z,50.90
2019-02-21T05:26:11.279Z,50.94
2019-02-21T05:28:41.273Z,50.97
2019-02-21T05:31:28.585Z,51.00
2019-02-21T05:34:01.633Z,51.00
2019-02-21T05:36:55.648Z,50.97
2019-02-21T05:39:36.647Z,51.01
2019-02-21T05:42:18.568Z,51.04
2019-02-21T05:45:10.986Z,51.03
2019-02-21T05:47:49.450Z,51.04
2019-02-21T05:50:32.280Z,51.03
2019-02-21T05:53:23.272Z,51.04
2019-02-21T05:55:59.250Z,51.06
2019-02-21T05:58:40.704Z,51.10
2019-02-21T06:01:16.956Z,51.09
2019-02-21T06:04:12.427Z,51.14
2019-02-21T06:07:12.522Z,51.18
2019-02-21T06:09:46.402Z,51.19
2019-02-21T06:12:36.811Z,51.17
2019-02-21T06:15:40.965Z,51.26
2019-02-21T06:18:23.454Z,51.25
2019-02-21T06:21:06.550Z,51.26
2019-02-21T06:23:42.015Z,51.30
2019-02-21T06:26:26.040Z,51.31
2019-02-21T06:29:22.464Z,51.37
2019-02-21T06:31:51.363Z,51.37
2019-02-21T06:34:19.916Z,51.34
2019-02-21T06:36:48.313Z,51.41
2019-02-21T06:39:16.642Z,51.45
2019-02-21T06:41:45.198Z,51.45
2019-02-21T06:44:13.996Z,51.49
2019-02-21T06:46:42.171Z,51.49
2019-02-21T06:49:10.380Z,51.50
2019-02-21T06:51:38.558Z,51.53
2019-02-21T06:54:09.246Z,51.54
2019-02-21T06:56:37.429Z,51.55
2019-02-21T06:59:05.521Z,51.54
2019-02-21T07:01:33.951Z,51.58
2019-02-21T07:04:02.128Z,51.65
2019-02-21T07:06:32.210Z,51.67
2019-02-21T07:09:01.006Z,51.68
2019-02-21T07:11:29.754Z,51.67
2019-02-21T07:14:03.477Z,51.67
2019-02-21T07:17:58.032Z,51.68
2019-02-21T07:20:51.935Z,51.71
2019-02-21T07:23:22.068Z,51.59
2019-02-21T07:25:56.269Z,51.61
2019-02-21T07:28:24.501Z,51.61
2019-02-21T07:30:53.954Z,51.58
2019-02-21T07:33:28.396Z,51.54
2019-02-21T07:35:52.264Z,51.51
2019-02-21T07:38:20.781Z,51.47
2019-02-21T07:40:48.831Z,51.40
2019-02-21T07:43:20.591Z,51.33
2019-02-21T07:45:48.931Z,51.29
2019-02-21T07:48:17.187Z,51.19
2019-02-21T07:50:45.487Z,51.12
2019-02-21T07:53:13.769Z,51.03
2019-02-21T07:55:41.872Z,50.90
2019-02-21T07:58:10.068Z,50.80
2019-02-21T08:00:39.110Z,50.73
2019-02-21T08:03:09.201Z,50.61
2019-02-21T08:05:37.917Z,50.50
2019-02-21T08:08:06.015Z,50.40
2019-02-21T08:10:34.637Z,50.31
2019-02-21T08:13:02.804Z,50.22
2019-02-21T08:15:30.880Z,50.12
2019-02-21T08:17:58.981Z,50.01
2019-02-21T08:20:34.024Z,49.85
2019-02-21T08:22:57.140Z,49.72
2019-02-21T08:25:25.232Z,49.62
2019-02-21T08:27:53.391Z,49.46
2019-02-21T08:30:21.474Z,49.36
2019-02-21T08:33:09.142Z,49.35
2019-02-21T08:35:38.325Z,49.29
2019-02-21T08:38:06.511Z,49.11
2019-02-21T08:40:35.828Z,49.00
2019-02-21T08:43:04.253Z,48.96
2019-02-21T08:45:32.579Z,48.81
2019-02-21T08:48:00.607Z,48.70
2019-02-21T08:50:29.656Z,48.53
2019-02-21T08:53:00.831Z,48.47
2019-02-21T08:55:29.227Z,48.36
2019-02-21T08:57:57.632Z,48.20
2019-02-21T09:00:26.084Z,48.12
2019-02-21T09:02:54.502Z,48.01
2019-02-21T09:05:22.688Z,47.87
2019-02-21T09:07:50.876Z,47.58
2019-02-21T09:10:20.773Z,47.33
2019-02-21T09:12:49.947Z,47.13
2019-02-21T09:15:18.126Z,46.99
2019-02-21T09:17:46.206Z,46.76
2019-02-21T09:20:14.371Z,46.49
2019-02-21T09:22:42.544Z,46.24
2019-02-21T09:25:11.449Z,46.16
2019-02-21T09:27:40.626Z,46.05
2019-02-21T09:30:13.781Z,45.92
2019-02-21T09:32:42.381Z,45.68
2019-02-21T09:35:10.562Z,45.74
2019-02-21T09:37:40.569Z,45.53
2019-02-21T09:40:11.186Z,45.35
2019-02-21T09:42:39.409Z,45.32
2019-02-21T09:45:11.943Z,45.15
2019-02-21T09:47:40.007Z,45.25
2019-02-21T09:50:09.601Z,45.68
2019-02-21T09:52:37.947Z,45.73
2019-02-21T09:55:09.147Z,45.66
2019-02-21T09:57:37.425Z,45.50
2019-02-21T10:00:11.362Z,45.13
2019-02-21T10:02:41.968Z,44.81
2019-02-21T10:05:09.652Z,44.66
2019-02-21T10:07:39.360Z,44.42
2019-02-21T10:10:11.599Z,44.03
2019-02-21T10:12:41.355Z,43.53
2019-02-21T10:15:10.423Z,43.02
2019-02-21T10:17:38.643Z,42.67
2019-02-21T10:20:11.111Z,42.32
2019-02-21T10:22:39.309Z,42.10
2019-02-21T10:25:16.275Z,41.88
2019-02-21T10:27:44.352Z,41.84
2019-02-21T10:30:14.210Z,41.82
2019-02-21T10:32:42.277Z,41.88
2019-02-21T10:35:10.330Z,41.83
2019-02-21T10:37:38.412Z,41.85
2019-02-21T10:40:09.441Z,41.87
2019-02-21T10:42:37.694Z,41.86
2019-02-21T10:45:09.601Z,41.88
2019-02-21T10:47:37.970Z,41.87
2019-02-21T10:50:09.766Z,41.70
2019-02-21T10:52:37.958Z,41.56
2019-02-21T10:55:07.987Z,41.43
2019-02-21T10:57:38.280Z,41.08
2019-02-21T11:00:12.282Z,40.61
2019-02-21T11:02:41.336Z,40.10
2019-02-21T11:05:10.148Z,39.59
2019-02-21T11:07:38.694Z,39.21
2019-02-21T11:10:07.534Z,38.91
2019-02-21T11:12:35.803Z,38.64
2019-02-21T11:15:07.270Z,38.35
2019-02-21T11:17:35.338Z,37.88
2019-02-21T11:20:06.879Z,37.59
2019-02-21T11:22:34.999Z,37.49
2019-02-21T11:25:03.754Z,37.33
2019-02-21T11:27:31.939Z,37.15
2019-02-21T11:30:00.008Z,36.95
2019-02-21T11:32:28.273Z,36.67
2019-02-21T11:35:05.769Z,36.39
2019-02-21T11:37:26.434Z,36.07
2019-02-21T11:39:54.506Z,35.74
2019-02-21T11:42:22.696Z,35.42
2019-02-21T11:44:50.725Z,35.02
2019-02-21T11:47:18.813Z,34.83
2019-02-21T11:49:46.882Z,34.52
2019-02-21T11:52:14.954Z,34.38
2019-02-21T11:54:43.384Z,34.28
2019-02-21T11:57:12.730Z,33.82
2019-02-21T11:59:42.722Z,33.42
2019-02-21T12:02:11.767Z,33.48
2019-02-21T12:04:40.037Z,33.78
2019-02-21T12:07:08.448Z,33.56
2019-02-21T12:09:36.804Z,33.50
2019-02-21T12:12:06.976Z,33.36
2019-02-21T12:14:35.057Z,33.16
2019-02-21T12:17:03.323Z,32.96
2019-02-21T12:19:31.360Z,32.66
2019-02-21T12:21:59.605Z,32.31
2019-02-21T12:24:28.020Z,31.97
2019-02-21T12:26:56.087Z,31.77
2019-02-21T12:29:24.483Z,31.56
2019-02-21T12:31:52.547Z,31.45
2019-02-21T12:34:20.915Z,31.50
2019-02-21T12:36:48.964Z,31.75
2019-02-21T12:39:17.018Z,31.89
2019-02-21T12:41:45.101Z,32.12
2019-02-21T12:44:13.136Z,32.27
2019-02-21T12:46:41.204Z,32.17
2019-02-21T12:49:10.738Z,32.03
2019-02-21T12:51:39.375Z,32.09
2019-02-21T12:54:07.740Z,32.31
2019-02-21T12:56:35.829Z,32.46
2019-02-21T12:59:03.923Z,32.52
2019-02-21T13:01:31.984Z,32.45
2019-02-21T13:04:00.557Z,32.33
2019-02-21T13:06:28.616Z,32.19
2019-02-21T13:08:57.043Z,32.06
2019-02-21T13:11:25.134Z,31.85
2019-02-21T13:13:53.214Z,31.57
2019-02-21T13:16:21.251Z,31.15
2019-02-21T13:18:49.336Z,30.79
2019-02-21T13:21:17.737Z,30.57
2019-02-21T13:23:45.922Z,30.54
2019-02-21T13:26:14.403Z,30.44
2019-02-21T13:28:42.825Z,30.29
2019-02-21T13:31:12.090Z,30.13
2019-02-21T13:33:40.439Z,29.94
2019-02-21T13:36:09.600Z,29.76
2019-02-21T13:38:38.213Z,29.54
2019-02-21T13:41:06.252Z,29.39
2019-02-21T13:43:34.601Z,29.19
2019-02-21T13:46:02.752Z,29.04
2019-02-21T13:48:31.218Z,28.94
2019-02-21T13:51:00.006Z,28.88
2019-02-21T13:53:28.377Z,28.82
2019-02-21T13:55:56.609Z,28.77
2019-02-21T13:58:24.682Z,28.58
2019-02-21T14:00:53.827Z,28.48
2019-02-21T14:03:21.918Z,28.58
2019-02-21T14:05:49.991Z,28.62
2019-02-21T14:08:18.039Z,28.64
2019-02-21T14:10:46.099Z,28.56
2019-02-21T14:13:14.289Z,28.69
2019-02-21T14:15:43.452Z,29.08
2019-02-21T14:18:14.813Z,29.39
2019-02-21T14:20:45.621Z,29.73
2019-02-21T14:23:13.423Z,29.95
2019-02-21T14:25:41.484Z,30.09
2019-02-21T14:28:09.668Z,30.09
2019-02-21T14:30:38.078Z,29.98
2019-02-21T14:33:06.175Z,29.84
2019-02-21T14:35:34.341Z,29.74
2019-02-21T14:38:02.538Z,29.68
2019-02-21T14:40:30.566Z,29.57
2019-02-21T14:42:58.762Z,29.48
2019-02-21T14:45:28.283Z,29.46
2019-02-21T14:47:56.519Z,29.44
2019-02-21T14:50:24.570Z,29.40
2019-02-21T14:52:53.808Z,29.43
2019-02-21T14:55:21.869Z,29.43
2019-02-21T14:57:50.431Z,29.42
2019-02-21T15:00:20.473Z,29.40
2019-02-21T15:02:49.672Z,29.41
2019-02-21T15:05:18.276Z,29.47
2019-02-21T15:07:46.351Z,29.57
2019-02-21T15:10:15.089Z,29.62
2019-02-21T15:12:44.265Z,29.74
2019-02-21T15:15:14.413Z,29.88
2019-02-21T15:17:42.713Z,29.99
2019-02-21T15:20:13.148Z,30.12
2019-02-21T15:22:41.355Z,30.22
2019-02-21T15:25:09.528Z,30.37
2019-02-21T15:27:39.767Z,30.48
2019-02-21T15:30:11.714Z,30.54
2019-02-21T15:32:40.496Z,30.64
2019-02-21T15:35:08.688Z,30.74
2019-02-21T15:37:36.744Z,30.82
2019-02-21T15:40:08.636Z,30.89
2019-02-21T15:42:36.209Z,30.99
2019-02-21T15:45:05.964Z,31.06
2019-02-21T15:47:34.138Z,31.14
2019-02-21T15:50:02.845Z,31.25
2019-02-21T15:52:32.632Z,31.36
2019-02-21T15:55:11.841Z,31.47
2019-02-21T15:57:30.923Z,31.54
2019-02-21T15:59:59.011Z,31.65
2019-02-21T16:02:27.069Z,31.73
2019-02-21T16:04:56.886Z,31.81
2019-02-21T16:07:24.953Z,31.85
2019-02-21T16:09:53.330Z,31.93
2019-02-21T16:12:21.465Z,32.02
2019-02-21T16:14:49.943Z,32.11
2019-02-21T16:17:17.992Z,32.24
2019-02-21T16:19:46.077Z,32.39
2019-02-21T16:22:15.462Z,32.54
2019-02-21T16:24:43.862Z,32.68
2019-02-21T16:27:12.342Z,32.82
2019-02-21T16:29:40.373Z,32.92
2019-02-21T16:32:08.504Z,33.07
2019-02-21T16:34:36.883Z,33.18
2019-02-21T16:37:05.037Z,33.32
2019-02-21T16:39:33.349Z,33.45
2019-02-21T16:42:01.752Z,33.58
2019-02-21T16:44:29.845Z,33.70
2019-02-21T16:46:57.892Z,33.82
2019-02-21T16:49:25.971Z,33.90
2019-02-21T16:51:54.644Z,33.99
2019-02-21T16:54:22.729Z,34.10
2019-02-21T16:56:50.836Z,34.17
2019-02-21T16:59:21.088Z,34.26
2019-02-21T17:01:49.157Z,34.32
2019-02-21T17:04:17.362Z,34.41
2019-02-21T17:06:45.636Z,34.50
2019-02-21T17:09:14.888Z,34.59
2019-02-21T17:11:44.182Z,34.66
2019-02-21T17:14:12.346Z,34.76
2019-02-21T17:16:41.878Z,34.89
2019-02-21T17:19:10.052Z,34.98
2019-02-21T17:21:38.454Z,35.07
2019-02-21T17:24:06.539Z,35.16
2019-02-21T17:26:34.737Z,35.21
2019-02-21T17:29:02.912Z,35.31
2019-02-21T17:31:31.015Z,35.43
2019-02-21T17:33:59.184Z,35.48
2019-02-21T17:36:27.265Z,35.59
2019-02-21T17:38:55.338Z,35.68
2019-02-21T17:41:24.612Z,35.78
2019-02-21T17:43:52.776Z,35.89
2019-02-21T17:46:22.032Z,36.00
2019-02-21T17:48:51.916Z,36.10
2019-02-21T17:51:20.485Z,36.20
2019-02-21T17:53:48.734Z,36.31
2019-02-21T17:56:17.185Z,36.42
2019-02-21T17:58:45.842Z,36.58
2019-02-21T18:01:13.969Z,36.76
2019-02-21T18:03:42.143Z,36.87
2019-02-21T18:06:17.432Z,37.00
2019-02-21T18:08:45.465Z,37.06
2019-02-21T18:11:13.654Z,37.14
2019-02-21T18:13:43.537Z,37.26
2019-02-21T18:16:12.086Z,37.37
2019-02-21T18:18:40.161Z,37.48
2019-02-21T18:21:08.571Z,37.56
2019-02-21T18:23:36.963Z,37.65
2019-02-21T18:26:16.825Z,37.75
2019-02-21T18:28:44.925Z,37.80
2019-02-21T18:31:23.840Z,37.87
2019-02-21T18:33:52.101Z,37.95
2019-02-21T18:36:20.366Z,38.07
2019-02-21T18:38:48.871Z,38.18
2019-02-21T18:41:17.436Z,38.30
2019-02-21T18:43:45.844Z,38.42
2019-02-21T18:46:16.063Z,38.54
2019-02-21T18:48:46.143Z,38.69
2019-02-21T18:51:14.241Z,38.90
2019-02-21T18:53:42.336Z,39.08
2019-02-21T18:56:10.581Z,39.26
2019-02-21T18:58:40.761Z,39.37
2019-02-21T19:01:08.966Z,39.49
2019-02-21T19:03:37.139Z,39.58
2019-02-21T19:06:05.337Z,39.66
2019-02-21T19:08:34.597Z,39.71
2019-02-21T19:11:03.896Z,39.75
2019-02-21T19:13:31.972Z,39.80
2019-02-21T19:16:02.066Z,39.85
2019-02-21T19:18:31.233Z,39.91
2019-02-21T19:20:59.521Z,40.01
2019-02-21T19:23:27.767Z,40.11
2019-02-21T19:25:55.891Z,40.24
2019-02-21T19:28:23.969Z,40.31
2019-02-21T19:30:58.270Z,40.41
2019-02-21T19:33:26.546Z,40.49
2019-02-21T19:35:55.158Z,40.61
2019-02-21T19:38:23.616Z,40.71
2019-02-21T19:40:51.750Z,40.81
2019-02-21T19:43:20.135Z,40.90
2019-02-21T19:45:48.331Z,40.97
2019-02-21T19:48:17.259Z,41.07
2019-02-21T19:50:45.382Z,41.13
2019-02-21T19:53:14.465Z,41.20
2019-02-21T19:55:43.791Z,41.27
2019-02-21T19:58:11.950Z,41.35
2019-02-21T20:00:40.591Z,41.42
2019-02-21T20:03:10.860Z,41.52
2019-02-21T20:05:38.949Z,41.59
2019-02-21T20:08:08.973Z,41.68
2019-02-21T20:10:37.390Z,41.73
2019-02-21T20:13:10.597Z,41.77
2019-02-21T20:15:39.129Z,41.84
2019-02-21T20:18:07.203Z,41.85
2019-02-21T20:20:35.287Z,41.92
2019-02-21T20:23:03.368Z,41.94
2019-02-21T20:25:31.871Z,41.94
2019-02-21T20:27:59.989Z,41.96
2019-02-21T20:30:28.062Z,42.00
2019-02-21T20:32:56.281Z,42.04
2019-02-21T20:35:24.443Z,42.06
2019-02-21T20:37:52.544Z,42.09
2019-02-21T20:40:20.805Z,42.16
2019-02-21T20:42:49.061Z,42.22
2019-02-21T20:45:17.235Z,42.29
2019-02-21T20:47:45.476Z,42.35
2019-02-21T20:50:14.097Z,42.41
2019-02-21T20:52:42.368Z,42.47
2019-02-21T20:55:10.997Z,42.51
2019-02-21T20:57:39.514Z,42.53
2019-02-21T21:00:11.298Z,42.60
2019-02-21T21:02:39.803Z,42.65
2019-02-21T21:05:08.192Z,42.72
2019-02-21T21:07:36.714Z,42.77
2019-02-21T21:10:08.589Z,42.81
2019-02-21T21:12:38.577Z,42.84
2019-02-21T21:15:09.431Z,42.86
2019-02-21T21:17:37.641Z,42.88
2019-02-21T21:20:15.955Z,42.90
2019-02-21T21:22:38.473Z,42.92
2019-02-21T21:25:09.566Z,42.95
2019-02-21T21:27:39.186Z,42.98
2019-02-21T21:30:10.199Z,43.00
2019-02-21T21:32:40.013Z,43.03
2019-02-21T21:35:08.220Z,43.05
2019-02-21T21:37:36.700Z,43.07
2019-02-21T21:40:07.137Z,43.12
2019-02-21T21:42:35.429Z,43.19
2019-02-21T21:45:05.715Z,43.24
2019-02-21T21:47:33.808Z,43.29
2019-02-21T21:50:01.851Z,43.34
2019-02-21T21:52:31.456Z,43.42
2019-02-21T21:54:59.557Z,43.48
2019-02-21T21:57:27.642Z,43.56
2019-02-21T21:59:55.759Z,43.60
2019-02-21T22:02:23.842Z,43.66
2019-02-21T22:04:51.896Z,43.71
2019-02-21T22:07:20.399Z,43.75
2019-02-21T22:09:48.762Z,43.80
2019-02-21T22:12:18.012Z,43.85
2019-02-21T22:14:47.337Z,43.87
2019-02-21T22:17:15.411Z,43.94
2019-02-21T22:19:43.487Z,43.96
2019-02-21T22:22:11.593Z,44.02
2019-02-21T22:24:39.683Z,44.09
2019-02-21T22:27:08.129Z,44.17
2019-02-21T22:29:36.293Z,44.24
2019-02-21T22:32:04.373Z,44.28
2019-02-21T22:34:32.442Z,44.32
2019-02-21T22:37:00.624Z,44.38
2019-02-21T22:39:28.694Z,44.41
2019-02-21T22:41:56.784Z,44.44
2019-02-21T22:44:25.230Z,44.50
2019-02-21T22:46:53.398Z,44.52
2019-02-21T22:49:22.458Z,44.57
2019-02-21T22:51:50.581Z,44.59
2019-02-21T22:54:20.107Z,44.64
2019-02-21T22:56:48.173Z,44.68
2019-02-21T22:59:16.361Z,44.71
2019-02-21T23:01:46.489Z,44.78
2019-02-21T23:05:16.845Z,44.80
2019-02-21T23:08:48.871Z,44.85
2019-02-21T23:11:16.964Z,44.76
2019-02-21T23:13:45.153Z,44.78
2019-02-21T23:16:13.454Z,44.83
2019-02-21T23:18:41.565Z,44.87
2019-02-21T23:21:09.774Z,44.91
2019-02-21T23:23:38.935Z,44.97
2019-02-21T23:26:07.528Z,45.03
2019-02-21T23:28:35.677Z,45.07
2019-02-21T23:31:03.758Z,45.11
2019-02-21T23:33:34.253Z,45.17
2019-02-21T23:36:02.801Z,45.27
2019-02-21T23:38:31.864Z,45.28
2019-02-21T23:40:59.963Z,45.30
2019-02-21T23:43:28.345Z,45.31
2019-02-21T23:45:56.719Z,45.33
2019-02-21T23:48:24.800Z,45.32
2019-02-21T23:50:53.847Z,45.35
2019-02-21T23:53:21.932Z,45.35
2019-02-21T23:55:49.989Z,45.39
2019-02-21T23:58:19.059Z,45.42
